createdAt,value
2023-01-23T00:00:21.856Z,1.77
2023-01-23T00:02:50.931Z,3.80
2023-01-23T00:05:20.059Z,4.37
2023-01-23T00:07:49.101Z,4.53
2023-01-23T00:10:18.892Z,1.57
2023-01-23T00:12:49.943Z,3.67
2023-01-23T00:15:19.117Z,4.80
2023-01-23T00:17:48.389Z,2.00
2023-01-23T00:20:18.007Z,7.03
2023-01-23T00:22:47.164Z,2.30
2023-01-23T00:25:16.318Z,1.87
2023-01-23T00:27:45.341Z,1.97
2023-01-23T00:30:16.202Z,2.53
2023-01-23T00:32:45.335Z,2.10
2023-01-23T00:35:14.390Z,3.33
2023-01-23T00:37:43.558Z,5.93
2023-01-23T00:40:14.272Z,1.37
2023-01-23T00:42:43.307Z,1.30
2023-01-23T00:45:12.874Z,2.27
2023-01-23T00:47:43.624Z,1.70
2023-01-23T00:50:14.647Z,2.20
2023-01-23T00:52:43.640Z,1.20
2023-01-23T00:55:12.685Z,2.13
2023-01-23T00:57:41.742Z,1.07
2023-01-23T01:00:12.214Z,2.60
2023-01-23T01:02:41.289Z,1.67
2023-01-23T01:05:11.967Z,1.17
2023-01-23T01:07:41.084Z,1.40
2023-01-23T01:10:11.526Z,1.00
2023-01-23T01:12:40.614Z,2.83
2023-01-23T01:15:11.471Z,1.23
2023-01-23T01:17:40.896Z,2.43
2023-01-23T01:20:12.610Z,3.50
2023-01-23T01:22:41.745Z,2.57
2023-01-23T01:25:11.468Z,1.17
2023-01-23T01:27:40.663Z,3.87
2023-01-23T01:30:10.712Z,2.40
2023-01-23T01:32:40.671Z,1.80
2023-01-23T01:35:12.725Z,7.33
2023-01-23T01:37:43.016Z,4.60
2023-01-23T01:40:16.681Z,3.77
2023-01-23T01:42:48.730Z,5.67
2023-01-23T01:45:55.340Z,1.70
2023-01-23T01:48:28.081Z,3.30
2023-01-23T01:51:00.516Z,1.63
2023-01-23T01:53:32.137Z,3.30
2023-01-23T01:56:02.154Z,3.20
2023-01-23T01:58:31.979Z,2.83
2023-01-23T02:01:01.162Z,4.13
2023-01-23T02:03:30.515Z,4.23
2023-01-23T02:06:01.257Z,4.30
2023-01-23T02:08:36.597Z,3.90
2023-01-23T02:11:07.200Z,2.57
2023-01-23T02:13:39.291Z,2.83
2023-01-23T02:16:11.123Z,2.77
2023-01-23T02:18:44.587Z,2.53
2023-01-23T02:21:16.958Z,4.83
2023-01-23T02:23:57.749Z,4.17
2023-01-23T02:26:32.982Z,3.20
2023-01-23T02:29:02.290Z,2.13
2023-01-23T02:31:37.363Z,2.17
2023-01-23T02:34:07.888Z,2.60
2023-01-23T02:36:37.141Z,3.57
2023-01-23T02:39:11.179Z,3.60
2023-01-23T02:41:44.303Z,2.47
2023-01-23T02:44:17.343Z,3.73
2023-01-23T02:46:51.399Z,3.00
2023-01-23T02:49:21.838Z,2.67
2023-01-23T02:51:51.912Z,3.50
2023-01-23T02:54:21.543Z,4.47
2023-01-23T02:56:52.205Z,3.43
2023-01-23T02:59:41.010Z,7.43
2023-01-23T03:02:10.919Z,5.10
2023-01-23T03:04:39.965Z,3.57
2023-01-23T03:07:09.199Z,3.17
2023-01-23T03:09:38.276Z,2.83
2023-01-23T03:12:09.201Z,5.00
2023-01-23T03:14:39.308Z,5.10
2023-01-23T03:17:11.011Z,2.53
2023-01-23T03:19:40.140Z,10.20
2023-01-23T03:22:09.345Z,3.43
2023-01-23T03:24:39.055Z,4.10
2023-01-23T03:27:09.506Z,1.83
2023-01-23T03:30:03.777Z,4.50
2023-01-23T03:32:32.838Z,3.03
2023-01-23T03:35:02.068Z,4.47
2023-01-23T03:37:31.214Z,2.60
2023-01-23T03:40:18.389Z,3.13
2023-01-23T03:42:48.980Z,2.17
2023-01-23T03:45:25.519Z,3.60
2023-01-23T03:47:54.574Z,2.70
2023-01-23T03:50:23.775Z,2.73
2023-01-23T03:52:52.827Z,1.60
2023-01-23T03:55:22.743Z,1.80
2023-01-23T03:57:53.543Z,2.27
2023-01-23T04:00:31.666Z,1.70
2023-01-23T04:03:06.004Z,2.00
2023-01-23T04:05:35.635Z,3.50
2023-01-23T04:08:05.117Z,4.47
2023-01-23T04:10:34.325Z,2.33
2023-01-23T04:13:09.013Z,2.60
2023-01-23T04:15:38.261Z,4.03
2023-01-23T04:18:09.052Z,6.13
2023-01-23T04:20:40.473Z,2.73
2023-01-23T04:23:09.602Z,3.93
2023-01-23T04:25:39.722Z,3.57
2023-01-23T04:28:15.658Z,4.87
2023-01-23T04:30:46.330Z,3.70
2023-01-23T04:33:23.172Z,4.70
2023-01-23T04:35:54.832Z,10.20
2023-01-23T04:38:24.285Z,3.90
2023-01-23T04:40:54.469Z,3.70
2023-01-23T04:43:25.323Z,3.10
2023-01-23T04:45:56.738Z,4.27
2023-01-23T04:48:48.895Z,7.17
2023-01-23T04:51:18.427Z,4.33
2023-01-23T04:53:48.028Z,3.73
2023-01-23T04:56:17.043Z,5.40
2023-01-23T04:58:49.758Z,4.83
2023-01-23T05:01:23.134Z,3.93
2023-01-23T05:03:55.110Z,4.80
2023-01-23T05:06:24.699Z,5.47
2023-01-23T05:08:56.949Z,4.23
2023-01-23T05:11:35.361Z,7.03
2023-01-23T05:14:06.850Z,4.83
2023-01-23T05:16:36.352Z,5.00
2023-01-23T05:19:20.808Z,6.90
2023-01-23T05:21:50.021Z,6.47
2023-01-23T05:24:22.551Z,5.17
2023-01-23T05:26:52.161Z,6.90
2023-01-23T05:29:23.711Z,7.77
2023-01-23T05:32:02.534Z,6.67
2023-01-23T05:34:54.426Z,5.17
2023-01-23T05:37:26.326Z,4.93
2023-01-23T05:39:59.652Z,7.60
2023-01-23T05:42:41.278Z,9.17
2023-01-23T05:45:37.243Z,5.80
2023-01-23T05:48:12.621Z,5.67
2023-01-23T05:50:42.214Z,5.00
2023-01-23T05:53:11.273Z,4.00
2023-01-23T05:55:40.629Z,4.23
2023-01-23T05:58:11.260Z,5.27
2023-01-23T06:00:59.166Z,4.60
2023-01-23T06:03:47.634Z,6.60
2023-01-23T06:06:35.959Z,9.63
2023-01-23T06:09:05.519Z,6.77
2023-01-23T06:11:35.245Z,10.10
2023-01-23T06:14:05.336Z,6.87
2023-01-23T06:16:36.311Z,4.77
2023-01-23T06:19:07.244Z,12.10
2023-01-23T06:21:39.022Z,5.93
2023-01-23T06:24:09.117Z,6.50
2023-01-23T06:26:38.343Z,6.37
2023-01-23T06:29:08.054Z,7.20
2023-01-23T06:31:39.301Z,5.07
2023-01-23T06:34:08.757Z,5.10
2023-01-23T06:36:46.324Z,6.93
2023-01-23T06:39:16.170Z,4.53
2023-01-23T06:41:45.829Z,10.17
2023-01-23T06:44:21.244Z,6.17
2023-01-23T06:46:53.683Z,7.90
2023-01-23T06:49:25.548Z,9.40
2023-01-23T06:51:55.171Z,7.33
2023-01-23T06:54:26.746Z,9.23
2023-01-23T06:57:01.815Z,9.93
2023-01-23T06:59:32.192Z,9.93
2023-01-23T07:02:03.418Z,5.10
2023-01-23T07:04:40.790Z,6.77
2023-01-23T07:07:09.897Z,10.13
2023-01-23T07:09:38.980Z,5.57
2023-01-23T07:12:13.037Z,8.20
2023-01-23T07:14:42.096Z,4.90
2023-01-23T07:17:14.905Z,6.83
2023-01-23T07:19:44.081Z,7.63
2023-01-23T07:22:19.487Z,7.20
2023-01-23T07:24:48.726Z,6.40
2023-01-23T07:27:17.980Z,7.67
2023-01-23T07:29:47.348Z,8.33
2023-01-23T07:32:17.967Z,5.83
2023-01-23T07:34:46.982Z,10.63
2023-01-23T07:37:16.209Z,6.47
2023-01-23T07:39:45.473Z,6.37
2023-01-23T07:42:14.473Z,6.57
2023-01-23T07:44:44.303Z,6.37
2023-01-23T07:47:13.384Z,7.47
2023-01-23T07:49:44.029Z,12.73
2023-01-23T07:52:13.048Z,7.60
2023-01-23T07:54:42.170Z,10.00
2023-01-23T07:57:11.244Z,7.60
2023-01-23T07:59:40.411Z,8.57
2023-01-23T08:02:10.943Z,8.87
2023-01-23T08:04:40.416Z,7.57
2023-01-23T08:07:10.821Z,10.50
2023-01-23T08:09:40.412Z,10.53
2023-01-23T08:12:09.488Z,7.13
2023-01-23T08:14:39.216Z,7.37
2023-01-23T08:17:08.279Z,7.43
2023-01-23T08:19:37.288Z,8.63
2023-01-23T08:22:06.560Z,7.87
2023-01-23T08:24:37.013Z,6.20
2023-01-23T08:27:06.163Z,7.00
2023-01-23T08:29:35.331Z,13.00
2023-01-23T08:32:04.507Z,7.77
2023-01-23T08:34:33.681Z,8.17
2023-01-23T08:37:02.843Z,8.60
2023-01-23T08:39:31.879Z,7.27
2023-01-23T08:42:02.288Z,6.27
2023-01-23T08:44:34.122Z,7.50
2023-01-23T08:47:03.427Z,7.67
2023-01-23T08:49:32.544Z,14.30
2023-01-23T08:52:01.709Z,8.60
2023-01-23T08:54:30.920Z,11.03
2023-01-23T08:57:01.592Z,10.07
2023-01-23T08:59:30.783Z,10.23
2023-01-23T09:01:59.918Z,9.53
2023-01-23T09:04:29.146Z,12.90
2023-01-23T09:06:58.161Z,8.23
2023-01-23T09:09:27.209Z,9.83
2023-01-23T09:11:56.552Z,10.53
2023-01-23T09:14:26.977Z,12.53
2023-01-23T09:16:56.150Z,7.57
2023-01-23T09:19:25.230Z,9.43
2023-01-23T09:21:56.910Z,8.73
2023-01-23T09:24:25.932Z,7.67
2023-01-23T09:26:54.983Z,7.57
2023-01-23T09:29:24.123Z,8.97
2023-01-23T09:31:54.605Z,7.33
2023-01-23T09:34:23.712Z,6.67
2023-01-23T09:36:53.349Z,6.73
2023-01-23T09:39:22.448Z,9.57
2023-01-23T09:41:51.497Z,8.73
2023-01-23T09:44:23.750Z,10.83
2023-01-23T09:46:57.746Z,6.77
2023-01-23T09:49:35.874Z,11.13
2023-01-23T09:52:11.537Z,7.90
2023-01-23T09:54:44.805Z,11.67
2023-01-23T09:57:17.342Z,8.33
2023-01-23T09:59:59.886Z,8.53
2023-01-23T10:02:31.416Z,7.37
2023-01-23T10:05:02.848Z,10.93
2023-01-23T10:07:54.331Z,9.10
2023-01-23T10:10:55.903Z,8.10
2023-01-23T10:13:37.575Z,13.10
2023-01-23T10:16:22.921Z,9.07
2023-01-23T10:19:03.755Z,8.00
2023-01-23T10:21:39.979Z,8.30
2023-01-23T10:24:40.069Z,8.03
2023-01-23T10:27:19.584Z,7.10
2023-01-23T10:29:53.439Z,9.30
2023-01-23T10:32:27.740Z,9.17
2023-01-23T10:35:03.401Z,9.73
2023-01-23T10:37:44.300Z,11.43
2023-01-23T10:40:15.564Z,10.13
2023-01-23T10:42:44.588Z,9.27
2023-01-23T10:45:20.349Z,6.60
2023-01-23T10:47:55.189Z,9.47
2023-01-23T10:50:39.145Z,13.27
2023-01-23T10:53:17.607Z,9.53
2023-01-23T10:55:47.499Z,14.03
2023-01-23T10:58:30.710Z,10.90
2023-01-23T11:01:00.018Z,9.33
2023-01-23T11:03:32.539Z,10.57
2023-01-23T11:06:06.184Z,12.93
2023-01-23T11:08:37.219Z,8.33
2023-01-23T11:11:24.272Z,10.07
2023-01-23T11:14:06.408Z,10.90
2023-01-23T11:16:35.957Z,11.87
2023-01-23T11:19:13.438Z,11.23
2023-01-23T11:21:54.202Z,8.57
2023-01-23T11:24:39.109Z,10.83
2023-01-23T11:27:20.342Z,11.90
2023-01-23T11:30:32.268Z,9.33
2023-01-23T11:33:10.012Z,10.83
2023-01-23T11:36:00.617Z,11.67
2023-01-23T11:38:37.696Z,10.13
2023-01-23T11:41:12.482Z,9.10
2023-01-23T11:43:42.509Z,10.80
2023-01-23T11:46:31.357Z,8.40
2023-01-23T11:49:18.667Z,8.40
2023-01-23T11:51:51.885Z,11.73
2023-01-23T11:54:47.454Z,10.83
2023-01-23T11:57:25.433Z,7.97
2023-01-23T12:00:21.760Z,12.23
2023-01-23T12:03:18.015Z,9.73
2023-01-23T12:09:03.619Z,9.77
2023-01-23T12:11:40.629Z,11.20
2023-01-23T12:14:17.548Z,8.73
2023-01-23T12:17:13.590Z,11.17
2023-01-23T12:20:01.966Z,11.47
2023-01-23T12:22:44.520Z,13.33
2023-01-23T12:25:27.426Z,11.90
2023-01-23T12:28:09.844Z,8.33
2023-01-23T12:30:56.493Z,11.80
2023-01-23T12:33:51.437Z,8.77
2023-01-23T12:37:05.699Z,9.93
2023-01-23T12:39:53.589Z,8.50
2023-01-23T12:42:26.844Z,15.03
2023-01-23T12:45:02.639Z,9.93
2023-01-23T12:47:35.476Z,9.83
2023-01-23T12:50:15.299Z,7.40
2023-01-23T12:52:50.080Z,10.27
2023-01-23T12:55:24.002Z,10.40
2023-01-23T12:58:08.320Z,9.20
2023-01-23T13:00:55.061Z,10.00
2023-01-23T13:03:45.913Z,10.33
2023-01-23T13:06:34.725Z,9.10
2023-01-23T13:09:18.352Z,9.17
2023-01-23T13:12:21.802Z,11.53
2023-01-23T13:15:12.502Z,12.63
2023-01-23T13:17:47.832Z,11.93
2023-01-23T13:20:44.216Z,9.63
2023-01-23T13:23:24.994Z,10.67
2023-01-23T13:26:28.912Z,12.00
2023-01-23T13:29:02.011Z,11.43
2023-01-23T13:31:45.382Z,10.57
2023-01-23T13:34:38.478Z,11.00
2023-01-23T13:37:55.283Z,14.93
2023-01-23T13:40:25.526Z,12.40
2023-01-23T13:42:54.625Z,10.57
2023-01-23T13:45:32.158Z,13.03
2023-01-23T14:20:39.790Z,13.10
2023-01-23T14:23:21.570Z,10.77
2023-01-23T14:25:52.214Z,17.53
2023-01-23T14:28:21.468Z,13.63
2023-01-23T14:30:59.552Z,16.00
2023-01-23T14:33:29.803Z,13.20
2023-01-23T14:35:58.845Z,14.23
2023-01-23T14:38:35.191Z,10.70
2023-01-23T14:41:09.208Z,12.70
2023-01-23T14:43:39.208Z,16.07
2023-01-23T14:46:15.240Z,12.80
2023-01-23T14:48:46.157Z,16.37
2023-01-23T14:51:22.226Z,12.23
2023-01-23T14:53:59.489Z,13.37
2023-01-23T14:56:32.907Z,14.87
2023-01-23T14:59:05.095Z,10.97
2023-01-23T15:01:35.898Z,13.63
2023-01-23T15:04:07.569Z,12.03
2023-01-23T15:06:37.792Z,12.37
2023-01-23T15:09:13.463Z,14.53
2023-01-23T15:11:44.742Z,13.63
2023-01-23T15:14:35.895Z,14.47
2023-01-23T15:17:07.360Z,13.43
2023-01-23T15:19:38.662Z,13.57
2023-01-23T15:22:09.611Z,15.10
2023-01-23T15:24:38.645Z,17.33
2023-01-23T15:27:25.893Z,12.17
2023-01-23T15:30:36.066Z,13.97
2023-01-23T15:33:21.413Z,11.50
2023-01-23T15:35:50.555Z,15.77
2023-01-23T15:38:19.917Z,16.27
2023-01-23T15:40:48.970Z,15.37
2023-01-23T15:43:20.648Z,15.37
2023-01-23T15:45:49.743Z,16.60
2023-01-23T15:48:18.922Z,14.80
2023-01-23T15:50:48.047Z,13.63
2023-01-23T15:53:17.437Z,18.20
2023-01-23T15:55:47.333Z,15.43
2023-01-23T15:58:17.695Z,16.53
2023-01-23T16:00:46.770Z,15.17
2023-01-23T16:03:17.192Z,14.97
2023-01-23T16:05:46.236Z,16.20
2023-01-23T16:08:23.056Z,15.10
2023-01-23T16:10:52.465Z,18.53
2023-01-23T16:13:23.024Z,14.03
2023-01-23T16:15:52.648Z,17.07
2023-01-23T16:18:23.625Z,19.13
2023-01-23T16:20:52.783Z,17.10
2023-01-23T16:23:24.653Z,17.43
2023-01-23T16:25:54.430Z,20.10
2023-01-23T16:28:26.904Z,13.60
2023-01-23T16:30:56.019Z,16.43
2023-01-23T16:33:25.365Z,20.10
2023-01-23T16:35:55.519Z,19.87
2023-01-23T16:38:27.906Z,17.97
2023-01-23T16:40:59.577Z,16.13
2023-01-23T16:43:30.086Z,15.50
2023-01-23T16:45:59.360Z,16.03
2023-01-23T16:48:28.967Z,19.00
2023-01-23T16:51:02.302Z,13.20
2023-01-23T16:53:34.070Z,23.23
2023-01-23T16:56:05.269Z,20.57
2023-01-23T16:58:39.794Z,16.83
2023-01-23T17:01:15.054Z,16.30
2023-01-23T17:03:45.733Z,16.70
2023-01-23T17:06:18.105Z,16.73
2023-01-23T17:08:52.572Z,17.40
2023-01-23T17:11:28.228Z,17.80
2023-01-23T17:14:02.895Z,17.77
2023-01-23T17:16:32.383Z,13.57
2023-01-23T17:19:07.679Z,26.10
2023-01-23T17:21:37.123Z,19.53
2023-01-23T17:24:07.003Z,17.83
2023-01-23T17:26:36.601Z,19.93
2023-01-23T17:29:07.164Z,14.57
2023-01-23T17:31:37.150Z,17.97
2023-01-23T17:34:07.463Z,15.90
2023-01-23T17:36:37.645Z,17.83
2023-01-23T17:39:09.130Z,17.10
2023-01-23T17:41:38.754Z,16.30
2023-01-23T17:44:10.231Z,15.20
2023-01-23T17:46:39.722Z,18.40
2023-01-23T17:49:28.329Z,21.00
2023-01-23T17:51:58.864Z,41.87
2023-01-23T17:54:28.540Z,33.00
2023-01-23T17:56:57.624Z,21.07
2023-01-23T17:59:28.036Z,16.67
2023-01-23T18:01:58.450Z,22.27
2023-01-23T18:04:27.582Z,14.47
2023-01-23T18:06:56.654Z,17.50
2023-01-23T18:09:25.742Z,17.73
2023-01-23T18:11:55.718Z,17.53
2023-01-23T18:14:43.589Z,24.93
2023-01-23T18:17:23.391Z,21.57
2023-01-23T18:19:54.063Z,19.70
2023-01-23T18:22:23.546Z,18.97
2023-01-23T18:24:53.466Z,19.77
2023-01-23T18:27:25.287Z,24.17
2023-01-23T18:30:15.946Z,20.37
2023-01-23T18:33:17.433Z,17.90
2023-01-23T18:36:06.443Z,25.67
2023-01-23T18:38:43.847Z,18.70
2023-01-23T18:41:22.102Z,15.33
2023-01-23T18:43:56.808Z,21.00
2023-01-23T18:46:28.004Z,22.23
2023-01-23T18:48:57.558Z,18.60
2023-01-23T18:51:38.567Z,22.37
2023-01-23T18:54:20.256Z,19.77
2023-01-23T18:57:03.881Z,24.93
2023-01-23T18:59:41.940Z,20.27
2023-01-23T19:02:24.612Z,20.83
2023-01-23T19:05:22.603Z,22.63
2023-01-23T19:07:52.325Z,18.30
2023-01-23T19:10:28.044Z,18.10
2023-01-23T19:13:07.630Z,18.97
2023-01-23T19:15:44.096Z,21.70
2023-01-23T19:18:39.537Z,18.43
2023-01-23T19:21:20.345Z,22.23
2023-01-23T19:23:57.119Z,22.20
2023-01-23T19:26:28.261Z,23.03
2023-01-23T19:29:08.429Z,19.93
2023-01-23T19:32:02.923Z,21.43
2023-01-23T19:34:35.285Z,16.67
2023-01-23T19:37:05.080Z,21.30
2023-01-23T19:39:34.223Z,18.30
2023-01-23T19:42:03.772Z,19.20
2023-01-23T19:44:33.604Z,20.17
2023-01-23T19:47:03.422Z,23.10
2023-01-23T19:49:33.903Z,24.53
2023-01-23T19:52:03.488Z,25.77
2023-01-23T19:54:32.545Z,22.10
2023-01-23T19:57:01.601Z,19.83
2023-01-23T19:59:30.676Z,26.10
2023-01-23T20:02:00.170Z,22.00
2023-01-23T20:04:29.555Z,26.93
2023-01-23T20:06:59.996Z,20.03
2023-01-23T20:09:29.227Z,22.03
2023-01-23T20:11:58.680Z,26.20
2023-01-23T20:14:29.470Z,23.30
2023-01-23T20:16:58.796Z,22.13
2023-01-23T20:19:27.954Z,21.93
2023-01-23T20:21:57.108Z,22.83
2023-01-23T20:24:27.495Z,21.40
2023-01-23T20:26:56.562Z,25.90
2023-01-23T20:29:25.618Z,25.80
2023-01-23T20:31:55.379Z,24.77
2023-01-23T20:34:27.026Z,24.60
2023-01-23T20:36:56.318Z,22.97
2023-01-23T20:39:26.943Z,22.90
2023-01-23T20:41:56.500Z,23.30
2023-01-23T20:44:25.953Z,18.83
2023-01-23T20:46:54.995Z,19.40
2023-01-23T20:49:24.216Z,34.57
2023-01-23T20:51:53.276Z,20.80
2023-01-23T20:54:21.370Z,24.10
2023-01-23T20:56:51.955Z,22.13
2023-01-23T20:59:21.460Z,26.23
2023-01-23T21:02:08.809Z,32.00
2023-01-23T21:04:39.619Z,22.00
2023-01-23T21:07:08.650Z,24.50
2023-01-23T21:09:37.766Z,25.60
2023-01-23T21:12:08.691Z,28.10
2023-01-23T21:14:37.761Z,24.53
2023-01-23T21:17:08.396Z,25.27
2023-01-23T21:19:38.885Z,30.17
2023-01-23T21:22:08.649Z,24.13
2023-01-23T21:24:37.935Z,23.53
2023-01-23T21:27:08.995Z,26.07
2023-01-23T21:29:39.590Z,33.60
2023-01-23T21:32:08.601Z,32.70
2023-01-23T21:34:38.423Z,33.20
2023-01-23T21:37:10.787Z,22.50
2023-01-23T21:39:39.915Z,26.77
2023-01-23T21:42:10.651Z,24.20
2023-01-23T21:44:39.693Z,22.30
2023-01-23T21:47:10.390Z,30.13
2023-01-23T21:49:39.477Z,21.57
2023-01-23T21:52:08.516Z,22.37
2023-01-23T21:54:38.190Z,18.00
2023-01-23T21:57:07.231Z,20.40
2023-01-23T21:59:37.678Z,29.70
2023-01-23T22:02:05.783Z,28.73
2023-01-23T22:04:34.958Z,27.30
2023-01-23T22:07:04.172Z,23.93
2023-01-23T22:09:33.330Z,33.13
2023-01-23T22:12:02.407Z,33.10
2023-01-23T22:14:32.236Z,30.47
2023-01-23T22:17:02.781Z,22.50
2023-01-23T22:19:31.827Z,22.63
2023-01-23T22:22:00.900Z,20.73
2023-01-23T22:24:30.589Z,26.80
2023-01-23T22:26:59.941Z,22.90
2023-01-23T22:29:29.061Z,20.83
2023-01-23T22:31:58.434Z,26.00
2023-01-23T22:34:29.319Z,25.13
2023-01-23T22:36:58.427Z,23.47
2023-01-23T22:39:27.466Z,26.73
2023-01-23T22:41:57.630Z,24.03
2023-01-23T22:44:27.144Z,26.00
2023-01-23T22:46:56.241Z,25.67
2023-01-23T22:49:25.632Z,22.23
2023-01-23T22:51:56.009Z,26.73
2023-01-23T22:54:25.052Z,24.03
2023-01-23T22:56:54.099Z,25.73
2023-01-23T22:59:23.116Z,29.33
2023-01-23T23:01:52.152Z,28.60
2023-01-23T23:04:22.259Z,28.80
2023-01-23T23:06:51.287Z,20.37
2023-01-23T23:09:21.708Z,26.63
2023-01-23T23:11:51.736Z,24.93
2023-01-23T23:14:20.832Z,32.57
2023-01-23T23:16:49.856Z,25.17
2023-01-23T23:19:18.870Z,23.13
2023-01-23T23:21:47.929Z,25.37
2023-01-23T23:24:17.083Z,20.83
2023-01-23T23:26:49.108Z,30.87
2023-01-23T23:29:18.383Z,23.60
2023-01-23T23:31:51.467Z,27.33
2023-01-23T23:34:20.897Z,26.77
2023-01-23T23:36:49.946Z,25.77
2023-01-23T23:39:19.041Z,23.70
2023-01-23T23:41:49.390Z,23.27
2023-01-23T23:44:19.077Z,23.23
2023-01-23T23:46:48.309Z,30.00
2023-01-23T23:49:17.334Z,21.97
2023-01-23T23:51:46.366Z,28.03
2023-01-23T23:54:15.415Z,26.97
2023-01-23T23:56:44.554Z,24.47
2023-01-23T23:59:17.154Z,29.37
